sensor_id;sensor_type;location;lat;lon;timestamp;P1;durP1;ratioP1;P2;durP2;ratioP2
22318;SDS011;11327;52.334;9.506;2022-11-20T00:02:11;18.40;;;11.57;;
22318;SDS011;11327;52.334;9.506;2022-11-20T00:05:32;19.37;;;11.90;;
22318;SDS011;11327;52.334;9.506;2022-11-20T00:08:54;17.50;;;11.48;;
22318;SDS011;11327;52.334;9.506;2022-11-20T00:12:17;21.48;;;12.75;;
22318;SDS011;11327;52.334;9.506;2022-11-20T00:15:38;19.02;;;11.53;;
22318;SDS011;11327;52.334;9.506;2022-11-20T00:18:59;19.85;;;11.90;;
22318;SDS011;11327;52.334;9.506;2022-11-20T00:22:20;18.50;;;11.70;;
22318;SDS011;11327;52.334;9.506;2022-11-20T00:25:41;20.08;;;12.70;;
22318;SDS011;11327;52.334;9.506;2022-11-20T00:29:02;19.90;;;12.30;;
22318;SDS011;11327;52.334;9.506;2022-11-20T00:32:23;20.57;;;12.68;;
22318;SDS011;11327;52.334;9.506;2022-11-20T00:35:44;20.15;;;12.93;;
22318;SDS011;11327;52.334;9.506;2022-11-20T00:39:05;22.10;;;13.58;;
22318;SDS011;11327;52.334;9.506;2022-11-20T00:42:26;22.87;;;14.05;;
22318;SDS011;11327;52.334;9.506;2022-11-20T00:45:47;21.77;;;13.88;;
22318;SDS011;11327;52.334;9.506;2022-11-20T00:49:08;22.55;;;13.95;;
22318;SDS011;11327;52.334;9.506;2022-11-20T00:52:29;21.75;;;12.70;;
22318;SDS011;11327;52.334;9.506;2022-11-20T00:55:53;21.23;;;12.35;;
22318;SDS011;11327;52.334;9.506;2022-11-20T00:59:21;21.85;;;12.82;;
22318;SDS011;11327;52.334;9.506;2022-11-20T01:02:43;21.00;;;13.20;;
22318;SDS011;11327;52.334;9.506;2022-11-20T01:06:07;21.60;;;13.43;;
22318;SDS011;11327;52.334;9.506;2022-11-20T01:09:33;21.40;;;12.50;;
22318;SDS011;11327;52.334;9.506;2022-11-20T01:12:54;18.90;;;12.28;;
22318;SDS011;11327;52.334;9.506;2022-11-20T01:16:35;23.32;;;13.35;;
22318;SDS011;11327;52.334;9.506;2022-11-20T01:19:57;21.95;;;12.53;;
22318;SDS011;11327;52.334;9.506;2022-11-20T01:23:18;20.88;;;12.30;;
22318;SDS011;11327;52.334;9.506;2022-11-20T01:26:40;21.20;;;12.85;;
22318;SDS011;11327;52.334;9.506;2022-11-20T01:30:02;20.05;;;12.03;;
22318;SDS011;11327;52.334;9.506;2022-11-20T01:33:23;19.07;;;12.05;;
22318;SDS011;11327;52.334;9.506;2022-11-20T01:36:45;19.45;;;11.75;;
22318;SDS011;11327;52.334;9.506;2022-11-20T01:40:06;22.77;;;12.55;;
22318;SDS011;11327;52.334;9.506;2022-11-20T01:43:27;19.73;;;11.30;;
22318;SDS011;11327;52.334;9.506;2022-11-20T01:50:26;18.37;;;11.48;;
22318;SDS011;11327;52.334;9.506;2022-11-20T01:53:54;17.20;;;10.23;;
22318;SDS011;11327;52.334;9.506;2022-11-20T01:57:17;15.32;;;9.85;;
22318;SDS011;11327;52.334;9.506;2022-11-20T02:00:41;15.90;;;9.78;;
22318;SDS011;11327;52.334;9.506;2022-11-20T02:04:02;15.40;;;9.78;;
22318;SDS011;11327;52.334;9.506;2022-11-20T02:07:23;15.38;;;9.30;;
22318;SDS011;11327;52.334;9.506;2022-11-20T02:10:44;16.97;;;10.50;;
22318;SDS011;11327;52.334;9.506;2022-11-20T02:14:05;18.05;;;10.00;;
22318;SDS011;11327;52.334;9.506;2022-11-20T02:17:27;20.17;;;11.05;;
22318;SDS011;11327;52.334;9.506;2022-11-20T02:20:49;22.07;;;11.85;;
22318;SDS011;11327;52.334;9.506;2022-11-20T02:24:16;19.50;;;11.22;;
22318;SDS011;11327;52.334;9.506;2022-11-20T02:27:39;21.35;;;11.22;;
22318;SDS011;11327;52.334;9.506;2022-11-20T02:31:00;22.30;;;11.65;;
22318;SDS011;11327;52.334;9.506;2022-11-20T02:34:21;26.90;;;13.48;;
22318;SDS011;11327;52.334;9.506;2022-11-20T02:37:42;24.10;;;11.73;;
22318;SDS011;11327;52.334;9.506;2022-11-20T02:41:04;18.07;;;10.78;;
22318;SDS011;11327;52.334;9.506;2022-11-20T02:44:25;18.32;;;10.82;;
22318;SDS011;11327;52.334;9.506;2022-11-20T02:47:46;18.10;;;9.93;;
22318;SDS011;11327;52.334;9.506;2022-11-20T02:51:07;17.98;;;10.25;;
22318;SDS011;11327;52.334;9.506;2022-11-20T02:54:28;18.82;;;10.95;;
22318;SDS011;11327;52.334;9.506;2022-11-20T02:57:49;18.82;;;10.32;;
22318;SDS011;11327;52.334;9.506;2022-11-20T03:01:10;23.05;;;11.10;;
22318;SDS011;11327;52.334;9.506;2022-11-20T03:04:31;30.10;;;14.98;;
22318;SDS011;11327;52.334;9.506;2022-11-20T03:07:52;17.85;;;10.72;;
22318;SDS011;11327;52.334;9.506;2022-11-20T03:11:13;17.42;;;10.48;;
22318;SDS011;11327;52.334;9.506;2022-11-20T03:14:34;17.85;;;10.48;;
22318;SDS011;11327;52.334;9.506;2022-11-20T03:17:55;20.45;;;11.33;;
22318;SDS011;11327;52.334;9.506;2022-11-20T03:21:16;18.07;;;10.53;;
22318;SDS011;11327;52.334;9.506;2022-11-20T03:24:37;16.35;;;10.38;;
22318;SDS011;11327;52.334;9.506;2022-11-20T03:27:58;16.57;;;9.93;;
22318;SDS011;11327;52.334;9.506;2022-11-20T03:31:20;15.93;;;9.35;;
22318;SDS011;11327;52.334;9.506;2022-11-20T03:34:43;15.93;;;10.05;;
22318;SDS011;11327;52.334;9.506;2022-11-20T03:38:04;18.85;;;10.58;;
22318;SDS011;11327;52.334;9.506;2022-11-20T03:41:29;16.82;;;10.48;;
22318;SDS011;11327;52.334;9.506;2022-11-20T03:44:50;18.70;;;10.20;;
22318;SDS011;11327;52.334;9.506;2022-11-20T03:48:11;18.27;;;10.78;;
22318;SDS011;11327;52.334;9.506;2022-11-20T03:51:33;20.50;;;11.22;;
22318;SDS011;11327;52.334;9.506;2022-11-20T03:54:55;19.17;;;11.38;;
22318;SDS011;11327;52.334;9.506;2022-11-20T03:58:16;18.00;;;10.50;;
22318;SDS011;11327;52.334;9.506;2022-11-20T04:01:38;20.52;;;12.50;;
22318;SDS011;11327;52.334;9.506;2022-11-20T04:04:59;21.82;;;12.45;;
22318;SDS011;11327;52.334;9.506;2022-11-20T04:08:20;18.62;;;11.40;;
22318;SDS011;11327;52.334;9.506;2022-11-20T04:11:41;16.82;;;10.65;;
22318;SDS011;11327;52.334;9.506;2022-11-20T04:15:02;17.92;;;10.35;;
22318;SDS011;11327;52.334;9.506;2022-11-20T04:18:23;14.83;;;9.43;;
22318;SDS011;11327;52.334;9.506;2022-11-20T04:21:44;17.85;;;10.48;;
22318;SDS011;11327;52.334;9.506;2022-11-20T04:25:05;17.55;;;10.63;;
22318;SDS011;11327;52.334;9.506;2022-11-20T04:28:26;19.02;;;10.28;;
22318;SDS011;11327;52.334;9.506;2022-11-20T04:31:47;17.67;;;10.40;;
22318;SDS011;11327;52.334;9.506;2022-11-20T04:35:08;17.77;;;9.90;;
22318;SDS011;11327;52.334;9.506;2022-11-20T04:38:29;18.50;;;10.25;;
22318;SDS011;11327;52.334;9.506;2022-11-20T04:41:50;18.60;;;10.08;;
22318;SDS011;11327;52.334;9.506;2022-11-20T04:45:13;16.50;;;9.83;;
22318;SDS011;11327;52.334;9.506;2022-11-20T04:48:34;15.63;;;8.78;;
22318;SDS011;11327;52.334;9.506;2022-11-20T04:51:55;17.45;;;10.18;;
22318;SDS011;11327;52.334;9.506;2022-11-20T04:55:16;15.40;;;8.93;;
22318;SDS011;11327;52.334;9.506;2022-11-20T04:58:38;16.02;;;8.70;;
22318;SDS011;11327;52.334;9.506;2022-11-20T05:01:59;14.93;;;8.53;;
22318;SDS011;11327;52.334;9.506;2022-11-20T05:05:20;15.58;;;8.93;;
22318;SDS011;11327;52.334;9.506;2022-11-20T05:08:41;16.10;;;8.95;;
22318;SDS011;11327;52.334;9.506;2022-11-20T05:12:02;16.00;;;9.03;;
22318;SDS011;11327;52.334;9.506;2022-11-20T05:15:23;16.48;;;8.85;;
22318;SDS011;11327;52.334;9.506;2022-11-20T05:18:44;16.25;;;8.85;;
22318;SDS011;11327;52.334;9.506;2022-11-20T05:22:06;14.18;;;8.85;;
22318;SDS011;11327;52.334;9.506;2022-11-20T05:25:27;15.53;;;8.88;;
22318;SDS011;11327;52.334;9.506;2022-11-20T05:28:48;16.87;;;9.18;;
22318;SDS011;11327;52.334;9.506;2022-11-20T05:32:10;15.93;;;9.48;;
22318;SDS011;11327;52.334;9.506;2022-11-20T05:35:30;17.62;;;9.78;;
22318;SDS011;11327;52.334;9.506;2022-11-20T05:38:51;18.30;;;10.40;;
22318;SDS011;11327;52.334;9.506;2022-11-20T05:42:12;15.58;;;9.68;;
22318;SDS011;11327;52.334;9.506;2022-11-20T05:45:52;16.87;;;9.93;;
22318;SDS011;11327;52.334;9.506;2022-11-20T05:49:14;17.70;;;10.60;;
22318;SDS011;11327;52.334;9.506;2022-11-20T05:52:35;18.70;;;11.22;;
22318;SDS011;11327;52.334;9.506;2022-11-20T05:55:59;17.30;;;10.93;;
22318;SDS011;11327;52.334;9.506;2022-11-20T05:59:23;17.92;;;11.25;;
22318;SDS011;11327;52.334;9.506;2022-11-20T06:02:44;19.48;;;11.20;;
22318;SDS011;11327;52.334;9.506;2022-11-20T06:06:05;18.48;;;10.82;;
22318;SDS011;11327;52.334;9.506;2022-11-20T06:09:26;18.42;;;10.50;;
22318;SDS011;11327;52.334;9.506;2022-11-20T06:12:47;17.87;;;10.95;;
22318;SDS011;11327;52.334;9.506;2022-11-20T06:16:09;19.85;;;11.40;;
22318;SDS011;11327;52.334;9.506;2022-11-20T06:19:31;17.70;;;10.90;;
22318;SDS011;11327;52.334;9.506;2022-11-20T06:22:52;18.65;;;11.33;;
22318;SDS011;11327;52.334;9.506;2022-11-20T06:26:20;18.42;;;10.95;;
22318;SDS011;11327;52.334;9.506;2022-11-20T06:29:43;16.27;;;10.10;;
22318;SDS011;11327;52.334;9.506;2022-11-20T06:33:04;17.17;;;10.45;;
22318;SDS011;11327;52.334;9.506;2022-11-20T06:36:25;17.12;;;10.18;;
22318;SDS011;11327;52.334;9.506;2022-11-20T06:39:46;17.62;;;10.75;;
22318;SDS011;11327;52.334;9.506;2022-11-20T06:43:08;19.00;;;10.48;;
22318;SDS011;11327;52.334;9.506;2022-11-20T06:46:30;15.70;;;9.60;;
22318;SDS011;11327;52.334;9.506;2022-11-20T06:49:52;19.75;;;11.43;;
22318;SDS011;11327;52.334;9.506;2022-11-20T06:53:13;17.85;;;11.63;;
22318;SDS011;11327;52.334;9.506;2022-11-20T06:56:34;17.17;;;10.43;;
22318;SDS011;11327;52.334;9.506;2022-11-20T06:59:55;23.55;;;13.50;;
22318;SDS011;11327;52.334;9.506;2022-11-20T07:03:16;17.75;;;10.90;;
22318;SDS011;11327;52.334;9.506;2022-11-20T07:06:37;16.60;;;10.30;;
22318;SDS011;11327;52.334;9.506;2022-11-20T07:09:57;17.87;;;11.10;;
22318;SDS011;11327;52.334;9.506;2022-11-20T07:13:19;18.02;;;10.38;;
22318;SDS011;11327;52.334;9.506;2022-11-20T07:16:39;17.05;;;10.20;;
22318;SDS011;11327;52.334;9.506;2022-11-20T07:20:00;18.37;;;10.50;;
22318;SDS011;11327;52.334;9.506;2022-11-20T07:23:21;17.40;;;9.93;;
22318;SDS011;11327;52.334;9.506;2022-11-20T07:26:42;16.62;;;9.40;;
22318;SDS011;11327;52.334;9.506;2022-11-20T07:30:05;17.57;;;10.58;;
22318;SDS011;11327;52.334;9.506;2022-11-20T07:33:27;16.62;;;10.82;;
22318;SDS011;11327;52.334;9.506;2022-11-20T07:36:48;18.77;;;10.55;;
22318;SDS011;11327;52.334;9.506;2022-11-20T07:40:09;19.48;;;10.82;;
22318;SDS011;11327;52.334;9.506;2022-11-20T07:43:31;19.20;;;10.40;;
22318;SDS011;11327;52.334;9.506;2022-11-20T07:46:52;18.00;;;10.25;;
22318;SDS011;11327;52.334;9.506;2022-11-20T07:50:13;19.02;;;10.43;;
22318;SDS011;11327;52.334;9.506;2022-11-20T07:53:34;16.70;;;10.18;;
22318;SDS011;11327;52.334;9.506;2022-11-20T07:56:55;16.52;;;9.40;;
22318;SDS011;11327;52.334;9.506;2022-11-20T08:00:16;20.80;;;11.78;;
22318;SDS011;11327;52.334;9.506;2022-11-20T08:03:37;20.10;;;11.68;;
22318;SDS011;11327;52.334;9.506;2022-11-20T08:06:58;18.98;;;12.20;;
22318;SDS011;11327;52.334;9.506;2022-11-20T08:10:19;21.33;;;14.15;;
22318;SDS011;11327;52.334;9.506;2022-11-20T08:13:40;22.75;;;14.87;;
22318;SDS011;11327;52.334;9.506;2022-11-20T08:17:19;22.62;;;12.95;;
22318;SDS011;11327;52.334;9.506;2022-11-20T08:20:41;21.62;;;11.93;;
22318;SDS011;11327;52.334;9.506;2022-11-20T08:24:02;20.45;;;11.63;;
22318;SDS011;11327;52.334;9.506;2022-11-20T08:27:23;22.35;;;13.30;;
22318;SDS011;11327;52.334;9.506;2022-11-20T08:30:44;24.92;;;15.32;;
22318;SDS011;11327;52.334;9.506;2022-11-20T08:34:06;19.85;;;12.13;;
22318;SDS011;11327;52.334;9.506;2022-11-20T08:37:27;19.87;;;12.85;;
22318;SDS011;11327;52.334;9.506;2022-11-20T08:40:48;19.45;;;11.48;;
22318;SDS011;11327;52.334;9.506;2022-11-20T08:44:11;28.38;;;17.55;;
22318;SDS011;11327;52.334;9.506;2022-11-20T08:47:31;23.52;;;14.50;;
22318;SDS011;11327;52.334;9.506;2022-11-20T08:50:52;18.98;;;12.73;;
22318;SDS011;11327;52.334;9.506;2022-11-20T08:54:13;18.40;;;12.10;;
22318;SDS011;11327;52.334;9.506;2022-11-20T08:57:35;21.15;;;12.43;;
22318;SDS011;11327;52.334;9.506;2022-11-20T09:00:56;20.37;;;12.90;;
22318;SDS011;11327;52.334;9.506;2022-11-20T09:04:17;20.10;;;11.90;;
22318;SDS011;11327;52.334;9.506;2022-11-20T09:07:38;18.82;;;11.22;;
22318;SDS011;11327;52.334;9.506;2022-11-20T09:11:01;18.02;;;11.08;;
22318;SDS011;11327;52.334;9.506;2022-11-20T09:14:22;18.42;;;11.45;;
22318;SDS011;11327;52.334;9.506;2022-11-20T09:17:52;16.87;;;10.63;;
22318;SDS011;11327;52.334;9.506;2022-11-20T09:21:15;16.55;;;10.53;;
22318;SDS011;11327;52.334;9.506;2022-11-20T09:24:36;16.25;;;10.38;;
22318;SDS011;11327;52.334;9.506;2022-11-20T09:27:57;16.55;;;10.60;;
22318;SDS011;11327;52.334;9.506;2022-11-20T09:31:22;17.77;;;11.53;;
22318;SDS011;11327;52.334;9.506;2022-11-20T09:34:44;27.82;;;18.62;;
22318;SDS011;11327;52.334;9.506;2022-11-20T09:38:07;23.87;;;15.75;;
22318;SDS011;11327;52.334;9.506;2022-11-20T09:52:22;17.35;;;11.08;;
22318;SDS011;11327;52.334;9.506;2022-11-20T09:56:02;18.37;;;11.63;;
22318;SDS011;11327;52.334;9.506;2022-11-20T10:03:11;18.10;;;11.63;;
22318;SDS011;11327;52.334;9.506;2022-11-20T10:09:54;15.72;;;10.38;;
22318;SDS011;11327;52.334;9.506;2022-11-20T10:32:02;10.75;;;7.08;;
22318;SDS011;11327;52.334;9.506;2022-11-20T10:38:13;10.30;;;6.62;;
22318;SDS011;11327;52.334;9.506;2022-11-20T10:41:38;10.50;;;6.75;;
22318;SDS011;11327;52.334;9.506;2022-11-20T10:45:31;10.68;;;7.00;;
22318;SDS011;11327;52.334;9.506;2022-11-20T10:48:47;12.65;;;7.72;;
22318;SDS011;11327;52.334;9.506;2022-11-20T10:52:11;10.05;;;7.10;;
22318;SDS011;11327;52.334;9.506;2022-11-20T10:55:44;12.03;;;7.62;;
22318;SDS011;11327;52.334;9.506;2022-11-20T11:02:53;13.10;;;8.40;;
22318;SDS011;11327;52.334;9.506;2022-11-20T11:09:56;12.47;;;7.40;;
22318;SDS011;11327;52.334;9.506;2022-11-20T11:13:21;10.58;;;6.75;;
22318;SDS011;11327;52.334;9.506;2022-11-20T11:20:25;14.63;;;6.97;;
22318;SDS011;11327;52.334;9.506;2022-11-20T11:23:44;16.05;;;9.50;;
22318;SDS011;11327;52.334;9.506;2022-11-20T11:27:11;15.45;;;9.38;;
22318;SDS011;11327;52.334;9.506;2022-11-20T11:30:40;15.70;;;8.78;;
22318;SDS011;11327;52.334;9.506;2022-11-20T11:34:21;14.95;;;7.62;;
22318;SDS011;11327;52.334;9.506;2022-11-20T11:37:34;13.58;;;7.87;;
22318;SDS011;11327;52.334;9.506;2022-11-20T11:40:56;13.55;;;8.05;;
22318;SDS011;11327;52.334;9.506;2022-11-20T11:48:04;11.97;;;8.00;;
22318;SDS011;11327;52.334;9.506;2022-11-20T11:51:39;12.43;;;7.85;;
22318;SDS011;11327;52.334;9.506;2022-11-20T11:55:12;11.35;;;7.15;;
22318;SDS011;11327;52.334;9.506;2022-11-20T12:05:54;12.03;;;7.10;;
22318;SDS011;11327;52.334;9.506;2022-11-20T12:09:15;10.70;;;6.62;;
22318;SDS011;11327;52.334;9.506;2022-11-20T12:12:39;10.68;;;6.95;;
22318;SDS011;11327;52.334;9.506;2022-11-20T12:16:03;11.90;;;7.95;;
22318;SDS011;11327;52.334;9.506;2022-11-20T12:19:25;14.95;;;8.43;;
22318;SDS011;11327;52.334;9.506;2022-11-20T12:22:52;12.65;;;7.97;;
22318;SDS011;11327;52.334;9.506;2022-11-20T12:26:35;12.35;;;7.72;;
22318;SDS011;11327;52.334;9.506;2022-11-20T12:30:00;13.55;;;9.08;;
22318;SDS011;11327;52.334;9.506;2022-11-20T12:37:18;12.75;;;8.73;;
22318;SDS011;11327;52.334;9.506;2022-11-20T12:48:03;15.05;;;8.68;;
22318;SDS011;11327;52.334;9.506;2022-11-20T13:02:23;11.65;;;7.25;;
22318;SDS011;11327;52.334;9.506;2022-11-20T13:05:58;11.25;;;7.35;;
22318;SDS011;11327;52.334;9.506;2022-11-20T13:09:20;13.95;;;8.70;;
22318;SDS011;11327;52.334;9.506;2022-11-20T13:12:44;13.85;;;8.30;;
22318;SDS011;11327;52.334;9.506;2022-11-20T13:19:35;11.90;;;7.37;;
22318;SDS011;11327;52.334;9.506;2022-11-20T13:22:56;11.33;;;7.37;;
22318;SDS011;11327;52.334;9.506;2022-11-20T13:26:22;14.85;;;8.65;;
22318;SDS011;11327;52.334;9.506;2022-11-20T13:29:44;11.43;;;7.62;;
22318;SDS011;11327;52.334;9.506;2022-11-20T13:33:07;13.53;;;7.67;;
22318;SDS011;11327;52.334;9.506;2022-11-20T13:36:30;12.28;;;8.10;;
22318;SDS011;11327;52.334;9.506;2022-11-20T13:39:53;11.83;;;7.67;;
22318;SDS011;11327;52.334;9.506;2022-11-20T13:43:19;12.25;;;8.08;;
22318;SDS011;11327;52.334;9.506;2022-11-20T13:50:04;13.18;;;7.95;;
22318;SDS011;11327;52.334;9.506;2022-11-20T14:01:00;13.20;;;7.85;;
22318;SDS011;11327;52.334;9.506;2022-11-20T14:04:26;12.80;;;7.78;;
22318;SDS011;11327;52.334;9.506;2022-11-20T14:07:52;11.95;;;7.70;;
22318;SDS011;11327;52.334;9.506;2022-11-20T14:11:18;14.65;;;8.85;;
22318;SDS011;11327;52.334;9.506;2022-11-20T14:14:47;14.63;;;9.20;;
22318;SDS011;11327;52.334;9.506;2022-11-20T14:18:19;16.15;;;10.05;;
22318;SDS011;11327;52.334;9.506;2022-11-20T14:21:37;15.90;;;9.40;;
22318;SDS011;11327;52.334;9.506;2022-11-20T14:28:35;15.63;;;9.90;;
22318;SDS011;11327;52.334;9.506;2022-11-20T14:31:56;15.20;;;10.48;;
22318;SDS011;11327;52.334;9.506;2022-11-20T14:35:23;15.95;;;10.03;;
22318;SDS011;11327;52.334;9.506;2022-11-20T14:38:42;17.50;;;11.03;;
22318;SDS011;11327;52.334;9.506;2022-11-20T14:42:11;16.73;;;10.70;;
22318;SDS011;11327;52.334;9.506;2022-11-20T14:45:39;17.97;;;11.23;;
22318;SDS011;11327;52.334;9.506;2022-11-20T14:49:01;18.12;;;11.30;;
22318;SDS011;11327;52.334;9.506;2022-11-20T14:52:24;18.50;;;11.30;;
22318;SDS011;11327;52.334;9.506;2022-11-20T14:55:53;19.35;;;12.63;;
22318;SDS011;11327;52.334;9.506;2022-11-20T14:59:11;17.25;;;11.95;;
22318;SDS011;11327;52.334;9.506;2022-11-20T15:02:40;19.70;;;12.00;;
22318;SDS011;11327;52.334;9.506;2022-11-20T15:06:02;19.65;;;12.78;;
22318;SDS011;11327;52.334;9.506;2022-11-20T15:09:25;19.05;;;12.18;;
22318;SDS011;11327;52.334;9.506;2022-11-20T15:13:00;19.95;;;11.97;;
22318;SDS011;11327;52.334;9.506;2022-11-20T15:16:23;19.05;;;11.83;;
22318;SDS011;11327;52.334;9.506;2022-11-20T15:19:45;16.97;;;10.50;;
22318;SDS011;11327;52.334;9.506;2022-11-20T15:23:09;15.18;;;9.40;;
22318;SDS011;11327;52.334;9.506;2022-11-20T15:26:32;19.42;;;11.35;;
22318;SDS011;11327;52.334;9.506;2022-11-20T15:29:55;21.57;;;12.30;;
22318;SDS011;11327;52.334;9.506;2022-11-20T15:33:16;18.75;;;11.05;;
22318;SDS011;11327;52.334;9.506;2022-11-20T15:36:42;17.85;;;11.95;;
22318;SDS011;11327;52.334;9.506;2022-11-20T15:40:01;21.40;;;13.30;;
22318;SDS011;11327;52.334;9.506;2022-11-20T15:43:22;18.77;;;11.83;;
22318;SDS011;11327;52.334;9.506;2022-11-20T15:46:43;19.95;;;11.75;;
22318;SDS011;11327;52.334;9.506;2022-11-20T15:50:08;17.80;;;11.40;;
22318;SDS011;11327;52.334;9.506;2022-11-20T15:53:31;20.97;;;12.85;;
22318;SDS011;11327;52.334;9.506;2022-11-20T15:56:52;22.32;;;13.10;;
22318;SDS011;11327;52.334;9.506;2022-11-20T16:00:13;19.80;;;12.10;;
22318;SDS011;11327;52.334;9.506;2022-11-20T16:03:35;19.40;;;11.93;;
22318;SDS011;11327;52.334;9.506;2022-11-20T16:06:56;20.88;;;13.55;;
22318;SDS011;11327;52.334;9.506;2022-11-20T16:10:17;19.87;;;12.95;;
22318;SDS011;11327;52.334;9.506;2022-11-20T16:13:38;19.73;;;12.07;;
22318;SDS011;11327;52.334;9.506;2022-11-20T16:17:17;19.23;;;11.65;;
22318;SDS011;11327;52.334;9.506;2022-11-20T16:20:40;17.70;;;10.88;;
22318;SDS011;11327;52.334;9.506;2022-11-20T16:24:02;21.68;;;14.68;;
22318;SDS011;11327;52.334;9.506;2022-11-20T16:27:25;19.15;;;12.10;;
22318;SDS011;11327;52.334;9.506;2022-11-20T16:30:46;17.23;;;11.40;;
22318;SDS011;11327;52.334;9.506;2022-11-20T16:34:07;18.82;;;11.43;;
22318;SDS011;11327;52.334;9.506;2022-11-20T16:37:28;21.62;;;12.98;;
22318;SDS011;11327;52.334;9.506;2022-11-20T16:40:49;20.48;;;12.13;;
22318;SDS011;11327;52.334;9.506;2022-11-20T16:44:10;20.02;;;12.25;;
22318;SDS011;11327;52.334;9.506;2022-11-20T16:47:34;20.25;;;12.47;;
22318;SDS011;11327;52.334;9.506;2022-11-20T16:50:55;18.50;;;11.43;;
22318;SDS011;11327;52.334;9.506;2022-11-20T16:54:16;20.48;;;12.75;;
22318;SDS011;11327;52.334;9.506;2022-11-20T16:57:37;19.85;;;12.88;;
22318;SDS011;11327;52.334;9.506;2022-11-20T17:01:04;20.80;;;13.03;;
22318;SDS011;11327;52.334;9.506;2022-11-20T17:04:30;25.90;;;15.40;;
22318;SDS011;11327;52.334;9.506;2022-11-20T17:07:51;23.60;;;14.05;;
22318;SDS011;11327;52.334;9.506;2022-11-20T17:11:16;20.68;;;12.98;;
22318;SDS011;11327;52.334;9.506;2022-11-20T17:14:38;20.75;;;12.93;;
22318;SDS011;11327;52.334;9.506;2022-11-20T17:17:59;20.90;;;13.18;;
22318;SDS011;11327;52.334;9.506;2022-11-20T17:21:22;20.17;;;12.93;;
22318;SDS011;11327;52.334;9.506;2022-11-20T17:24:43;23.38;;;13.88;;
22318;SDS011;11327;52.334;9.506;2022-11-20T17:28:04;23.95;;;14.18;;
22318;SDS011;11327;52.334;9.506;2022-11-20T17:31:26;27.75;;;15.38;;
22318;SDS011;11327;52.334;9.506;2022-11-20T17:34:48;25.82;;;15.55;;
22318;SDS011;11327;52.334;9.506;2022-11-20T17:38:09;24.50;;;15.10;;
22318;SDS011;11327;52.334;9.506;2022-11-20T17:41:30;25.10;;;15.72;;
22318;SDS011;11327;52.334;9.506;2022-11-20T17:44:51;25.05;;;15.70;;
22318;SDS011;11327;52.334;9.506;2022-11-20T17:48:12;25.50;;;15.53;;
22318;SDS011;11327;52.334;9.506;2022-11-20T17:51:33;23.52;;;15.50;;
22318;SDS011;11327;52.334;9.506;2022-11-20T17:54:54;23.75;;;15.63;;
22318;SDS011;11327;52.334;9.506;2022-11-20T17:58:17;26.05;;;17.02;;
22318;SDS011;11327;52.334;9.506;2022-11-20T18:01:38;30.65;;;19.98;;
22318;SDS011;11327;52.334;9.506;2022-11-20T18:05:02;27.00;;;17.10;;
22318;SDS011;11327;52.334;9.506;2022-11-20T18:08:23;23.75;;;15.88;;
22318;SDS011;11327;52.334;9.506;2022-11-20T18:11:46;24.50;;;15.40;;
22318;SDS011;11327;52.334;9.506;2022-11-20T18:15:07;25.70;;;15.65;;
22318;SDS011;11327;52.334;9.506;2022-11-20T18:18:28;25.65;;;15.85;;
22318;SDS011;11327;52.334;9.506;2022-11-20T18:21:49;27.77;;;16.87;;
22318;SDS011;11327;52.334;9.506;2022-11-20T18:25:10;26.95;;;16.95;;
22318;SDS011;11327;52.334;9.506;2022-11-20T18:28:30;33.13;;;18.67;;
22318;SDS011;11327;52.334;9.506;2022-11-20T18:31:53;30.50;;;18.17;;
22318;SDS011;11327;52.334;9.506;2022-11-20T18:35:14;28.50;;;17.57;;
22318;SDS011;11327;52.334;9.506;2022-11-20T18:38:35;27.52;;;17.27;;
22318;SDS011;11327;52.334;9.506;2022-11-20T18:42:00;30.35;;;19.27;;
22318;SDS011;11327;52.334;9.506;2022-11-20T18:45:39;31.45;;;19.05;;
22318;SDS011;11327;52.334;9.506;2022-11-20T18:49:00;34.75;;;20.88;;
22318;SDS011;11327;52.334;9.506;2022-11-20T18:52:22;32.28;;;20.62;;
22318;SDS011;11327;52.334;9.506;2022-11-20T18:55:45;29.37;;;18.70;;
22318;SDS011;11327;52.334;9.506;2022-11-20T18:59:07;29.35;;;17.25;;
22318;SDS011;11327;52.334;9.506;2022-11-20T19:02:29;27.75;;;18.02;;
22318;SDS011;11327;52.334;9.506;2022-11-20T19:05:50;27.85;;;16.73;;
22318;SDS011;11327;52.334;9.506;2022-11-20T19:09:12;27.10;;;16.75;;
22318;SDS011;11327;52.334;9.506;2022-11-20T19:12:32;27.77;;;17.57;;
22318;SDS011;11327;52.334;9.506;2022-11-20T19:15:53;32.15;;;18.67;;
22318;SDS011;11327;52.334;9.506;2022-11-20T19:19:14;28.20;;;16.37;;
22318;SDS011;11327;52.334;9.506;2022-11-20T19:22:35;32.63;;;18.87;;
22318;SDS011;11327;52.334;9.506;2022-11-20T19:26:00;50.23;;;27.77;;
22318;SDS011;11327;52.334;9.506;2022-11-20T19:29:21;42.83;;;23.27;;
22318;SDS011;11327;52.334;9.506;2022-11-20T19:32:43;32.17;;;17.70;;
22318;SDS011;11327;52.334;9.506;2022-11-20T19:36:12;30.88;;;17.87;;
22318;SDS011;11327;52.334;9.506;2022-11-20T19:39:36;32.85;;;18.87;;
22318;SDS011;11327;52.334;9.506;2022-11-20T19:42:57;29.92;;;16.82;;
22318;SDS011;11327;52.334;9.506;2022-11-20T19:46:18;35.35;;;19.85;;
22318;SDS011;11327;52.334;9.506;2022-11-20T19:49:41;38.85;;;21.35;;
22318;SDS011;11327;52.334;9.506;2022-11-20T19:53:02;31.23;;;17.62;;
22318;SDS011;11327;52.334;9.506;2022-11-20T19:56:23;28.75;;;15.65;;
22318;SDS011;11327;52.334;9.506;2022-11-20T19:59:45;24.47;;;13.62;;
22318;SDS011;11327;52.334;9.506;2022-11-20T20:03:06;26.75;;;16.15;;
22318;SDS011;11327;52.334;9.506;2022-11-20T20:06:27;25.82;;;15.43;;
22318;SDS011;11327;52.334;9.506;2022-11-20T20:09:48;23.20;;;14.75;;
22318;SDS011;11327;52.334;9.506;2022-11-20T20:13:09;23.95;;;14.03;;
22318;SDS011;11327;52.334;9.506;2022-11-20T20:16:30;21.52;;;12.53;;
22318;SDS011;11327;52.334;9.506;2022-11-20T20:19:51;20.30;;;12.70;;
22318;SDS011;11327;52.334;9.506;2022-11-20T20:23:12;22.42;;;13.28;;
22318;SDS011;11327;52.334;9.506;2022-11-20T20:26:34;21.87;;;12.80;;
22318;SDS011;11327;52.334;9.506;2022-11-20T20:29:54;19.90;;;12.33;;
22318;SDS011;11327;52.334;9.506;2022-11-20T20:33:15;20.05;;;11.65;;
22318;SDS011;11327;52.334;9.506;2022-11-20T20:36:36;21.55;;;12.35;;
22318;SDS011;11327;52.334;9.506;2022-11-20T20:39:57;24.47;;;15.53;;
22318;SDS011;11327;52.334;9.506;2022-11-20T20:43:18;24.02;;;15.58;;
22318;SDS011;11327;52.334;9.506;2022-11-20T20:46:40;22.73;;;13.78;;
22318;SDS011;11327;52.334;9.506;2022-11-20T20:50:01;20.23;;;12.33;;
22318;SDS011;11327;52.334;9.506;2022-11-20T20:53:23;18.95;;;11.38;;
22318;SDS011;11327;52.334;9.506;2022-11-20T20:56:45;20.72;;;11.83;;
22318;SDS011;11327;52.334;9.506;2022-11-20T21:00:06;20.90;;;12.58;;
22318;SDS011;11327;52.334;9.506;2022-11-20T21:03:28;22.22;;;14.55;;
22318;SDS011;11327;52.334;9.506;2022-11-20T21:06:49;20.72;;;12.40;;
22318;SDS011;11327;52.334;9.506;2022-11-20T21:10:10;22.20;;;12.37;;
22318;SDS011;11327;52.334;9.506;2022-11-20T21:13:31;21.27;;;12.82;;
22318;SDS011;11327;52.334;9.506;2022-11-20T21:16:53;21.68;;;12.78;;
22318;SDS011;11327;52.334;9.506;2022-11-20T21:20:14;21.97;;;12.82;;
22318;SDS011;11327;52.334;9.506;2022-11-20T21:23:54;22.20;;;13.28;;
22318;SDS011;11327;52.334;9.506;2022-11-20T21:27:15;20.05;;;12.40;;
22318;SDS011;11327;52.334;9.506;2022-11-20T21:30:36;21.73;;;13.38;;
22318;SDS011;11327;52.334;9.506;2022-11-20T21:33:57;32.95;;;19.02;;